createdAt,value
2024-04-24T00:02:04.849Z,99362.98
2024-04-24T00:04:31.211Z,99362.28
2024-04-24T00:06:57.536Z,99364.42
2024-04-24T00:09:23.850Z,99358.35
2024-04-24T00:11:50.382Z,99359.80
2024-04-24T00:14:16.990Z,99358.38
2024-04-24T00:16:43.347Z,99349.28
2024-04-24T00:19:09.743Z,99345.17
2024-04-24T00:21:36.110Z,99344.30
2024-04-24T00:24:02.448Z,99345.92
2024-04-24T00:26:29.049Z,99328.60
2024-04-24T00:28:55.363Z,99326.46
2024-04-24T00:31:21.763Z,99330.39
2024-04-24T00:33:48.334Z,99334.68
2024-04-24T00:36:14.834Z,99335.03
2024-04-24T00:38:41.176Z,99328.08
2024-04-24T00:41:07.563Z,99321.83
2024-04-24T00:43:33.905Z,99321.10
2024-04-24T00:46:01.183Z,99318.07
2024-04-24T00:48:28.242Z,99316.81
2024-04-24T00:50:56.009Z,99313.59
2024-04-24T00:53:22.416Z,99308.77
2024-04-24T00:55:49.008Z,99305.89
2024-04-24T00:58:17.592Z,99303.21
2024-04-24T01:00:44.597Z,99302.67
2024-04-24T01:03:12.108Z,99296.23
2024-04-24T01:05:38.752Z,99290.16
2024-04-24T01:08:05.274Z,99291.23
2024-04-24T01:10:31.771Z,99287.48
2024-04-24T01:12:58.067Z,99285.00
2024-04-24T01:15:24.947Z,99291.61
2024-04-24T01:17:55.538Z,99288.58
2024-04-24T01:20:27.861Z,99285.37
2024-04-24T01:23:00.040Z,99285.02
2024-04-24T01:25:38.019Z,99288.61
2024-04-24T01:28:04.624Z,99287.00
2024-04-24T01:30:31.008Z,99288.44
2024-04-24T01:32:57.571Z,99284.68
2024-04-24T01:35:24.147Z,99289.49
2024-04-24T01:37:50.589Z,99288.79
2024-04-24T01:40:17.256Z,99289.47
2024-04-24T01:42:43.591Z,99284.63
2024-04-24T01:45:09.863Z,99284.06
2024-04-24T01:47:36.321Z,99283.86
2024-04-24T01:50:02.932Z,99280.09
2024-04-24T01:52:32.465Z,99277.23
2024-04-24T01:54:58.784Z,99279.34
2024-04-24T01:57:25.103Z,99275.20
2024-04-24T01:59:51.487Z,99275.00
2024-04-24T02:02:17.960Z,99275.50
2024-04-24T02:04:44.483Z,99272.80
2024-04-24T02:07:10.785Z,99273.47
2024-04-24T02:09:37.100Z,99270.23
2024-04-24T02:12:10.377Z,99270.73
2024-04-24T02:14:42.276Z,99264.80
2024-04-24T02:17:08.753Z,99266.55
2024-04-24T02:19:35.258Z,99262.58
2024-04-24T02:22:01.645Z,99261.47
2024-04-24T02:24:46.812Z,99258.60
2024-04-24T02:27:13.162Z,99257.48
2024-04-24T02:29:48.241Z,99260.67
2024-04-24T02:32:21.135Z,99257.95
2024-04-24T02:34:47.836Z,99254.52
2024-04-24T02:37:14.165Z,99258.23
2024-04-24T02:39:40.484Z,99253.71
2024-04-24T02:42:07.685Z,99253.33
2024-04-24T02:44:33.992Z,99249.05
2024-04-24T02:47:00.355Z,99248.66
2024-04-24T02:49:26.815Z,99250.54
2024-04-24T02:51:53.119Z,99247.30
2024-04-24T02:54:19.545Z,99243.86
2024-04-24T02:56:45.860Z,99244.52
2024-04-24T02:59:12.341Z,99246.43
2024-04-24T03:01:38.713Z,99242.16
2024-04-24T03:04:05.088Z,99237.86
2024-04-24T03:06:31.377Z,99238.00
2024-04-24T03:08:57.673Z,99238.14
2024-04-24T03:11:24.126Z,99236.15
2024-04-24T03:13:50.646Z,99234.84
2024-04-24T03:16:16.955Z,99228.55
2024-04-24T03:18:44.060Z,99231.89
2024-04-24T03:21:10.390Z,99229.19
2024-04-24T03:23:38.087Z,99222.94
2024-04-24T03:26:06.514Z,99223.95
2024-04-24T03:28:32.853Z,99218.52
2024-04-24T03:30:59.167Z,99215.98
2024-04-24T03:33:25.521Z,99213.79
2024-04-24T03:35:51.873Z,99206.66
2024-04-24T03:38:18.240Z,99208.61
2024-04-24T03:40:45.207Z,99209.51
2024-04-24T03:43:11.540Z,99210.42
2024-04-24T03:45:37.895Z,99211.33
2024-04-24T03:48:05.417Z,99210.24
2024-04-24T03:50:31.912Z,99206.66
2024-04-24T03:52:58.249Z,99208.42
2024-04-24T03:55:24.941Z,99207.67
2024-04-24T03:57:51.530Z,99203.73
2024-04-24T04:00:17.916Z,99203.38
2024-04-24T04:02:44.647Z,99204.08
2024-04-24T04:05:11.174Z,99202.11
2024-04-24T04:07:37.502Z,99202.80
2024-04-24T04:10:04.208Z,99201.91
2024-04-24T04:12:30.540Z,99203.14
2024-04-24T04:14:56.814Z,99202.41
2024-04-24T04:17:23.230Z,99209.46
2024-04-24T04:19:49.706Z,99206.00
2024-04-24T04:22:16.148Z,99202.41
2024-04-24T04:24:42.908Z,99201.32
2024-04-24T04:27:09.213Z,99194.91
2024-04-24T04:29:35.500Z,99195.84
2024-04-24T04:32:01.948Z,99196.20
2024-04-24T04:34:28.353Z,99191.97
2024-04-24T04:36:54.657Z,99186.86
2024-04-24T04:39:21.129Z,99184.01
2024-04-24T04:41:47.405Z,99180.48
2024-04-24T04:44:13.827Z,99182.80
2024-04-24T04:46:40.802Z,99185.25
2024-04-24T04:49:07.234Z,99185.54
2024-04-24T04:51:33.512Z,99181.19
2024-04-24T04:53:59.839Z,99188.61
2024-04-24T04:56:27.310Z,99189.58
2024-04-24T04:58:53.746Z,99184.35
2024-04-24T05:01:20.062Z,99186.64
2024-04-24T05:03:46.481Z,99186.79
2024-04-24T05:06:13.673Z,99187.77
2024-04-24T05:08:40.041Z,99180.77
2024-04-24T05:11:06.436Z,99183.33
2024-04-24T05:13:32.857Z,99178.83
2024-04-24T05:15:59.143Z,99176.75
2024-04-24T05:18:25.895Z,99174.89
2024-04-24T05:20:52.482Z,99176.92
2024-04-24T05:23:19.013Z,99176.27
2024-04-24T05:25:53.148Z,99176.48
2024-04-24T05:28:38.515Z,99175.63
2024-04-24T05:31:04.823Z,99171.01
2024-04-24T05:33:31.524Z,99168.16
2024-04-24T05:35:58.079Z,99168.88
2024-04-24T05:38:24.716Z,99168.86
2024-04-24T05:40:51.231Z,99166.54
2024-04-24T05:43:18.125Z,99164.01
2024-04-24T05:45:44.421Z,99167.39
2024-04-24T05:48:10.925Z,99170.22
2024-04-24T05:50:37.397Z,99168.80
2024-04-24T05:53:03.928Z,99168.45
2024-04-24T05:55:30.252Z,99164.70
2024-04-24T05:57:56.631Z,99160.96
2024-04-24T06:00:22.925Z,99162.02
2024-04-24T06:02:49.358Z,99162.55
2024-04-24T06:05:15.670Z,99160.05
2024-04-24T06:07:42.489Z,99163.05
2024-04-24T06:10:08.889Z,99156.92
2024-04-24T06:12:35.218Z,99163.30
2024-04-24T06:15:01.560Z,99157.00
2024-04-24T06:17:28.079Z,99153.20
2024-04-24T06:19:56.087Z,99146.15
2024-04-24T06:22:22.434Z,99146.98
2024-04-24T06:24:49.338Z,99147.84
2024-04-24T06:27:15.751Z,99142.93
2024-04-24T06:29:42.163Z,99138.90
2024-04-24T06:32:08.571Z,99132.02
2024-04-24T06:34:35.040Z,99131.20
2024-04-24T06:37:01.401Z,99129.11
2024-04-24T06:39:27.664Z,99133.13
2024-04-24T06:41:53.947Z,99134.71
2024-04-24T06:44:20.311Z,99136.46
2024-04-24T06:46:46.609Z,99133.51
2024-04-24T06:49:12.914Z,99138.21
2024-04-24T06:51:39.278Z,99138.71
2024-04-24T06:54:05.614Z,99142.62
2024-04-24T06:56:31.964Z,99144.80
2024-04-24T06:58:58.314Z,99147.92
2024-04-24T07:01:24.703Z,99142.10
2024-04-24T07:03:51.032Z,99144.27
2024-04-24T07:06:17.509Z,99141.34
2024-04-24T07:08:43.920Z,99145.63
2024-04-24T07:11:10.315Z,99138.13
2024-04-24T07:13:36.884Z,99139.95
2024-04-24T07:16:03.416Z,99130.64
2024-04-24T07:18:29.951Z,99133.45
2024-04-24T07:20:57.009Z,99129.31
2024-04-24T07:23:23.511Z,99123.23
2024-04-24T07:25:50.021Z,99127.24
2024-04-24T07:28:16.517Z,99123.59
2024-04-24T07:30:43.046Z,99125.23
2024-04-24T07:33:09.432Z,99121.64
2024-04-24T07:35:35.919Z,99115.95
2024-04-24T07:38:02.441Z,99117.66
2024-04-24T07:40:28.916Z,99120.13
2024-04-24T07:42:55.704Z,99120.73
2024-04-24T07:45:22.019Z,99121.52
2024-04-24T07:47:48.539Z,99116.92
2024-04-24T07:50:15.239Z,99117.64
2024-04-24T07:52:41.768Z,99118.59
2024-04-24T07:55:08.201Z,99119.27
2024-04-24T07:57:34.683Z,99119.70
2024-04-24T08:00:01.144Z,99122.27
2024-04-24T08:02:28.462Z,99124.44
2024-04-24T08:04:55.191Z,99125.33
2024-04-24T08:07:21.681Z,99124.61
2024-04-24T08:09:47.995Z,99129.27
2024-04-24T08:12:26.803Z,99130.61
2024-04-24T08:14:53.729Z,99126.35
2024-04-24T08:17:21.268Z,99128.59
2024-04-24T08:19:48.726Z,99126.98
2024-04-24T08:22:15.059Z,99124.34
2024-04-24T08:24:41.582Z,99125.63
2024-04-24T08:27:07.894Z,99125.09
2024-04-24T08:29:34.379Z,99125.11
2024-04-24T08:32:00.807Z,99132.23
2024-04-24T08:34:27.201Z,99132.95
2024-04-24T08:36:53.522Z,99137.90
2024-04-24T08:39:19.836Z,99132.29
2024-04-24T08:41:46.938Z,99136.60
2024-04-24T08:44:13.933Z,99139.06
2024-04-24T08:46:43.119Z,99137.88
2024-04-24T08:49:10.953Z,99137.32
2024-04-24T08:51:42.490Z,99134.25
2024-04-24T08:54:14.365Z,99135.39
2024-04-24T08:56:45.146Z,99137.00
2024-04-24T08:59:23.668Z,99140.40
2024-04-24T09:02:10.188Z,99140.23
2024-04-24T09:04:41.532Z,99138.52
2024-04-24T09:07:08.774Z,99135.00
2024-04-24T09:09:35.592Z,99129.81
2024-04-24T09:12:04.814Z,99133.41
2024-04-24T09:14:33.363Z,99132.71
2024-04-24T09:17:01.548Z,99130.91
2024-04-24T09:19:28.516Z,99124.58
2024-04-24T09:21:54.922Z,99124.14
2024-04-24T09:24:21.853Z,99120.13
2024-04-24T09:26:49.178Z,99120.25
2024-04-24T09:29:16.141Z,99116.92
2024-04-24T09:31:44.557Z,99114.98
2024-04-24T09:34:11.582Z,99108.09
2024-04-24T09:36:38.537Z,99107.06
2024-04-24T09:39:08.186Z,99108.93
2024-04-24T09:41:35.459Z,99108.01
2024-04-24T09:44:02.544Z,99110.25
2024-04-24T09:46:32.289Z,99112.20
2024-04-24T09:49:00.139Z,99110.98
2024-04-24T09:51:26.579Z,99111.30
2024-04-24T09:53:52.930Z,99107.21
2024-04-24T09:56:24.118Z,99106.95
2024-04-24T09:58:53.320Z,99107.23
2024-04-24T10:01:23.574Z,99106.86
2024-04-24T10:03:55.313Z,99100.44
2024-04-24T10:06:23.162Z,99098.80
2024-04-24T10:08:54.033Z,99093.73
2024-04-24T10:11:24.867Z,99099.49
2024-04-24T10:13:51.649Z,99090.44
2024-04-24T10:16:18.800Z,99091.59
2024-04-24T10:18:46.404Z,99089.29
2024-04-24T10:21:13.864Z,99086.44
2024-04-24T10:23:42.333Z,99082.42
2024-04-24T10:26:09.957Z,99074.67
2024-04-24T10:28:38.119Z,99073.84
2024-04-24T10:31:04.699Z,99070.48
2024-04-24T10:33:32.329Z,99062.90
2024-04-24T10:35:58.856Z,99060.73
2024-04-24T10:38:27.288Z,99052.52
2024-04-24T10:40:55.119Z,99054.50
2024-04-24T10:43:23.943Z,99051.03
2024-04-24T10:45:56.794Z,99043.86
2024-04-24T10:48:23.243Z,99042.48
2024-04-24T10:50:51.481Z,99033.65
2024-04-24T10:53:19.237Z,99030.39
2024-04-24T10:55:54.674Z,99032.90
2024-04-24T10:58:21.521Z,99026.34
2024-04-24T11:00:48.344Z,99026.33
2024-04-24T11:03:14.768Z,99018.79
2024-04-24T11:05:43.265Z,99020.65
2024-04-24T11:08:20.159Z,99019.40
2024-04-24T11:10:54.322Z,99014.73
2024-04-24T11:13:20.842Z,99020.61
2024-04-24T11:15:54.649Z,99016.20
2024-04-24T11:18:28.596Z,99011.53
2024-04-24T11:20:55.383Z,99010.72
2024-04-24T11:23:22.072Z,99004.84
2024-04-24T11:25:58.795Z,99003.20
2024-04-24T11:28:26.907Z,98995.77
2024-04-24T11:30:53.296Z,98993.23
2024-04-24T11:33:20.718Z,98989.09
2024-04-24T11:35:47.707Z,98982.12
2024-04-24T11:38:14.192Z,98978.75
2024-04-24T11:40:42.429Z,98979.95
2024-04-24T11:43:09.452Z,98971.70
2024-04-24T11:45:35.848Z,98965.06
2024-04-24T11:48:04.383Z,98957.89
2024-04-24T11:50:31.225Z,98955.00
2024-04-24T11:53:00.992Z,98952.41
2024-04-24T11:55:27.488Z,98949.98
2024-04-24T11:57:53.793Z,98947.78
2024-04-24T12:00:20.100Z,98940.83
2024-04-24T12:02:46.525Z,98947.96
2024-04-24T12:05:13.062Z,98951.70
2024-04-24T12:07:46.473Z,98956.09
2024-04-24T12:10:13.334Z,98945.93
2024-04-24T12:12:42.812Z,98945.39
2024-04-24T12:15:14.816Z,98939.63
2024-04-24T12:17:41.518Z,98930.04
2024-04-24T12:20:08.760Z,98923.16
2024-04-24T12:22:35.133Z,98920.42
2024-04-24T12:25:01.528Z,98922.80
2024-04-24T12:27:27.861Z,98924.84
2024-04-24T12:29:54.667Z,98927.70
2024-04-24T12:32:21.036Z,98934.69
2024-04-24T12:34:47.394Z,98933.23
2024-04-24T12:37:13.705Z,98942.84
2024-04-24T12:39:39.974Z,98963.20
2024-04-24T12:42:06.469Z,98963.42
2024-04-24T12:44:34.143Z,98978.63
2024-04-24T12:47:00.667Z,98987.67
2024-04-24T12:49:27.060Z,98992.73
2024-04-24T12:51:54.976Z,98985.46
2024-04-24T12:54:21.286Z,98986.42
2024-04-24T12:56:48.876Z,98984.73
2024-04-24T12:59:15.226Z,98978.34
2024-04-24T13:01:41.842Z,98978.02
2024-04-24T13:04:08.788Z,98979.49
2024-04-24T13:06:37.204Z,98985.85
2024-04-24T13:09:03.676Z,98981.29
2024-04-24T13:11:30.721Z,98982.39
2024-04-24T13:13:57.229Z,98980.98
2024-04-24T13:16:24.331Z,98977.00
2024-04-24T13:18:50.874Z,98973.20
2024-04-24T13:21:19.468Z,98970.34
2024-04-24T13:23:45.998Z,98951.20
2024-04-24T13:26:12.379Z,98937.75
2024-04-24T13:28:38.951Z,98935.27
2024-04-24T13:31:07.684Z,98919.45
2024-04-24T13:33:34.585Z,98915.27
2024-04-24T13:36:01.178Z,98906.21
2024-04-24T13:38:27.891Z,98901.85
2024-04-24T13:40:54.291Z,98893.98
2024-04-24T13:43:20.707Z,98897.83
2024-04-24T13:45:47.040Z,98895.91
2024-04-24T13:48:13.645Z,98904.83
2024-04-24T13:50:40.510Z,98904.45
2024-04-24T13:53:09.233Z,98905.45
2024-04-24T13:55:35.898Z,98900.09
2024-04-24T13:58:02.392Z,98893.34
2024-04-24T14:00:30.669Z,98885.52
2024-04-24T14:02:57.540Z,98885.77
2024-04-24T14:05:24.105Z,98882.95
2024-04-24T14:07:50.721Z,98880.14
2024-04-24T14:10:17.095Z,98876.17
2024-04-24T14:12:46.107Z,98876.16
2024-04-24T14:15:18.898Z,98870.29
2024-04-24T14:17:46.084Z,98862.63
2024-04-24T14:20:12.688Z,98865.34
2024-04-24T14:22:39.608Z,98871.79
2024-04-24T14:25:07.320Z,98871.75
2024-04-24T14:27:33.632Z,98872.45
2024-04-24T14:30:00.290Z,98881.30
2024-04-24T14:32:26.760Z,98887.82
2024-04-24T14:34:53.169Z,98895.70
2024-04-24T14:37:19.906Z,98900.11
2024-04-24T14:39:46.253Z,98903.73
2024-04-24T14:42:12.695Z,98910.75
2024-04-24T14:44:39.075Z,98912.00
2024-04-24T14:47:05.758Z,98912.25
2024-04-24T14:49:32.323Z,98919.69
2024-04-24T14:51:58.905Z,98927.02
2024-04-24T14:54:25.304Z,98935.44
2024-04-24T14:56:51.718Z,98949.06
2024-04-24T14:59:18.192Z,98946.89
2024-04-24T15:01:44.822Z,98933.02
2024-04-24T15:04:11.350Z,98921.01
2024-04-24T15:07:00.292Z,98917.27
2024-04-24T15:09:26.765Z,98912.65
2024-04-24T15:11:53.330Z,98894.81
2024-04-24T15:14:20.086Z,98881.05
2024-04-24T15:16:46.505Z,98887.10
2024-04-24T15:19:12.866Z,98889.33
2024-04-24T15:21:40.425Z,98885.89
2024-04-24T15:24:07.033Z,98887.26
2024-04-24T15:26:33.669Z,98887.80
2024-04-24T15:29:00.408Z,98883.35
2024-04-24T15:31:27.179Z,98884.25
2024-04-24T15:33:54.357Z,98883.95
2024-04-24T15:36:21.755Z,98888.23
2024-04-24T15:38:48.328Z,98881.94
2024-04-24T15:41:15.315Z,98876.48
2024-04-24T15:43:42.240Z,98875.23
2024-04-24T15:46:09.755Z,98880.34
2024-04-24T15:48:37.114Z,98877.65
2024-04-24T15:51:04.345Z,98879.96
2024-04-24T15:53:31.040Z,98876.79
2024-04-24T15:55:57.518Z,98868.42
2024-04-24T15:58:24.386Z,98862.39
2024-04-24T16:00:51.217Z,98866.13
2024-04-24T16:03:17.849Z,98863.62
2024-04-24T16:05:45.663Z,98866.16
2024-04-24T16:08:12.734Z,98867.11
2024-04-24T16:10:39.224Z,98868.33
2024-04-24T16:13:05.578Z,98871.38
2024-04-24T16:15:32.239Z,98873.97
2024-04-24T16:17:58.829Z,98872.64
2024-04-24T16:20:25.310Z,98869.80
2024-04-24T16:22:53.292Z,98867.95
2024-04-24T16:25:19.723Z,98868.88
2024-04-24T16:27:46.067Z,98867.84
2024-04-24T16:30:12.498Z,98874.05
2024-04-24T16:32:39.859Z,98878.63
2024-04-24T16:35:06.530Z,98875.67
2024-04-24T16:37:32.934Z,98869.88
2024-04-24T16:39:59.457Z,98853.21
2024-04-24T16:42:25.943Z,98851.98
2024-04-24T16:44:52.313Z,98844.04
2024-04-24T16:47:18.960Z,98844.20
2024-04-24T16:49:45.855Z,98850.98
2024-04-24T16:52:13.831Z,98847.35
2024-04-24T16:54:40.536Z,98844.80
2024-04-24T16:57:10.250Z,98845.07
2024-04-24T16:59:36.696Z,98848.12
2024-04-24T17:02:03.248Z,98848.19
2024-04-24T17:04:29.903Z,98850.20
2024-04-24T17:06:56.418Z,98841.91
2024-04-24T17:09:22.812Z,98839.23
2024-04-24T17:11:49.638Z,98844.48
2024-04-24T17:14:16.854Z,98846.14
2024-04-24T17:16:43.253Z,98847.66
2024-04-24T17:19:13.033Z,98848.20
2024-04-24T17:21:39.478Z,98849.89
2024-04-24T17:24:21.193Z,98850.61
2024-04-24T17:26:48.374Z,98849.50
2024-04-24T17:29:15.082Z,98849.45
2024-04-24T17:31:42.043Z,98848.34
2024-04-24T17:34:08.952Z,98846.98
2024-04-24T17:36:35.801Z,98848.93
2024-04-24T17:39:02.217Z,98856.27
2024-04-24T17:41:28.691Z,98855.21
2024-04-24T17:43:55.020Z,98860.60
2024-04-24T17:46:21.405Z,98860.23
2024-04-24T17:48:47.948Z,98859.28
2024-04-24T17:51:14.403Z,98862.42
2024-04-24T17:53:41.396Z,98862.80
2024-04-24T17:56:08.443Z,98865.67
2024-04-24T17:58:34.924Z,98869.73
2024-04-24T18:01:01.706Z,98875.19
2024-04-24T18:03:30.431Z,98875.15
2024-04-24T18:05:57.352Z,98883.30
2024-04-24T18:08:23.841Z,98882.71
2024-04-24T18:10:50.360Z,98884.41
2024-04-24T18:13:16.845Z,98887.05
2024-04-24T18:15:45.562Z,98889.94
2024-04-24T18:18:17.105Z,98895.05
2024-04-24T18:20:44.645Z,98901.36
2024-04-24T18:23:12.062Z,98903.59
2024-04-24T18:25:38.581Z,98906.54
2024-04-24T18:28:05.226Z,98909.06
2024-04-24T18:30:31.672Z,98908.62
2024-04-24T18:33:03.271Z,98914.00
2024-04-24T18:35:30.229Z,98917.27
2024-04-24T18:37:56.750Z,98917.89
2024-04-24T18:40:23.209Z,98919.41
2024-04-24T18:42:49.713Z,98922.66
2024-04-24T18:45:16.335Z,98924.52
2024-04-24T18:47:42.889Z,98924.84
2024-04-24T18:50:09.791Z,98925.92
2024-04-24T18:52:37.619Z,98931.20
2024-04-24T18:55:05.355Z,98941.91
2024-04-24T18:57:32.620Z,98953.64
2024-04-24T18:59:59.570Z,98973.16
2024-04-24T19:02:26.078Z,98980.76
2024-04-24T19:04:52.496Z,98974.23
2024-04-24T19:07:18.902Z,98985.94
2024-04-24T19:09:45.266Z,98989.80
2024-04-24T19:12:11.643Z,98989.24
2024-04-24T19:14:38.057Z,98985.30
2024-04-24T19:17:04.709Z,98998.04
2024-04-24T19:19:31.162Z,99002.15
2024-04-24T19:21:57.494Z,99006.95
2024-04-24T19:24:24.511Z,99004.73
2024-04-24T19:26:50.944Z,99006.90
2024-04-24T19:29:17.428Z,99011.04
2024-04-24T19:31:43.961Z,99010.32
2024-04-24T19:34:10.456Z,99014.05
2024-04-24T19:36:36.870Z,99018.29
2024-04-24T19:39:03.618Z,99017.42
2024-04-24T19:41:29.976Z,99009.54
2024-04-24T19:43:56.385Z,99006.13
2024-04-24T19:46:22.755Z,98998.27
2024-04-24T19:48:52.562Z,98995.84
2024-04-24T19:51:18.875Z,98997.44
2024-04-24T19:53:45.289Z,98992.98
2024-04-24T19:56:11.848Z,98993.93
2024-04-24T19:58:38.352Z,98994.61
2024-04-24T20:01:09.830Z,98996.60
2024-04-24T20:03:37.196Z,98998.58
2024-04-24T20:06:05.619Z,98994.83
2024-04-24T20:08:32.774Z,98998.77
2024-04-24T20:11:03.133Z,98995.05
2024-04-24T20:13:29.709Z,98993.83
2024-04-24T20:16:05.674Z,98996.84
2024-04-24T20:18:37.853Z,99000.95
2024-04-24T20:21:05.467Z,99005.42
2024-04-24T20:23:32.093Z,99004.65
2024-04-24T20:25:58.603Z,99010.84
2024-04-24T20:28:24.974Z,99012.91
2024-04-24T20:30:51.581Z,99016.96
2024-04-24T20:33:18.122Z,99021.20
2024-04-24T20:35:44.779Z,99024.20
2024-04-24T20:38:12.113Z,99027.02
2024-04-24T20:40:38.626Z,99030.20
2024-04-24T20:43:05.020Z,99030.35
2024-04-24T20:45:31.394Z,99032.68
2024-04-24T20:47:57.897Z,99034.61
2024-04-24T20:50:24.364Z,99042.80
2024-04-24T20:52:50.725Z,99041.71
2024-04-24T20:55:17.254Z,99044.21
2024-04-24T20:57:43.760Z,99035.27
2024-04-24T21:00:12.692Z,99044.37
2024-04-24T21:02:39.357Z,99035.02
2024-04-24T21:05:05.925Z,99034.36
2024-04-24T21:07:32.346Z,99027.58
2024-04-24T21:09:58.730Z,99026.74
2024-04-24T21:12:25.089Z,99018.45
2024-04-24T21:14:52.741Z,99009.70
2024-04-24T21:17:19.163Z,99005.42
2024-04-24T21:19:45.691Z,99003.06
2024-04-24T21:22:12.048Z,98999.99
2024-04-24T21:24:38.512Z,98993.04
2024-04-24T21:27:05.037Z,98997.14
2024-04-24T21:29:31.503Z,98995.14
2024-04-24T21:31:58.064Z,98989.45
2024-04-24T21:34:24.532Z,98983.58
2024-04-24T21:36:50.987Z,98988.78
2024-04-24T21:39:17.304Z,98987.97
2024-04-24T21:41:44.761Z,98989.76
2024-04-24T21:44:11.451Z,98986.54
2024-04-24T21:46:37.849Z,98991.05
2024-04-24T21:49:04.550Z,98989.98
2024-04-24T21:51:30.889Z,98990.62
2024-04-24T21:53:58.308Z,98995.46
2024-04-24T21:56:25.109Z,98989.33
2024-04-24T21:58:54.691Z,98991.67
2024-04-24T22:01:20.988Z,98987.39
2024-04-24T22:03:48.339Z,98986.15
2024-04-24T22:06:19.178Z,98989.55
2024-04-24T22:08:47.092Z,98989.02
2024-04-24T22:11:13.511Z,98985.63
2024-04-24T22:13:39.950Z,98988.48
2024-04-24T22:16:06.847Z,98986.17
2024-04-24T22:18:34.807Z,98984.52
2024-04-24T22:21:01.862Z,98982.75
2024-04-24T22:23:28.464Z,98982.92
2024-04-24T22:25:54.816Z,98980.92
2024-04-24T22:28:21.237Z,98983.02
2024-04-24T22:30:48.351Z,98983.15
2024-04-24T22:33:15.126Z,98987.60
2024-04-24T22:35:41.608Z,98988.47
2024-04-24T22:38:09.282Z,98986.11
2024-04-24T22:40:35.657Z,98990.88
2024-04-24T22:43:02.048Z,98992.64
2024-04-24T22:45:28.822Z,98986.91
2024-04-24T22:47:55.439Z,98990.30
2024-04-24T22:50:22.027Z,98987.23
2024-04-24T22:52:48.756Z,98985.80
2024-04-24T22:55:15.089Z,98984.36
2024-04-24T22:57:41.491Z,98981.11
2024-04-24T23:00:15.765Z,98978.05
2024-04-24T23:02:42.198Z,98977.35
2024-04-24T23:05:08.731Z,98975.55
2024-04-24T23:07:35.080Z,98970.52
2024-04-24T23:10:01.526Z,98972.84
2024-04-24T23:12:27.903Z,98971.61
2024-04-24T23:14:54.595Z,98971.09
2024-04-24T23:17:20.954Z,98976.08
2024-04-24T23:19:47.385Z,98973.87
2024-04-24T23:22:13.714Z,98970.19
2024-04-24T23:24:40.035Z,98970.20
2024-04-24T23:27:06.396Z,98970.94
2024-04-24T23:29:34.337Z,98968.60
2024-04-24T23:32:00.748Z,98968.26
2024-04-24T23:34:27.173Z,98965.99
2024-04-24T23:36:53.470Z,98964.77
2024-04-24T23:39:19.770Z,98964.20
2024-04-24T23:41:46.071Z,98965.88
2024-04-24T23:44:12.476Z,98968.05
2024-04-24T23:46:38.969Z,98965.69
2024-04-24T23:49:05.930Z,98963.47
2024-04-24T23:51:32.774Z,98965.96
2024-04-24T23:53:59.066Z,98960.20
2024-04-24T23:56:25.434Z,98959.34
2024-04-24T23:58:52.718Z,98956.30
